sensor_id;sensor_type;location;lat;lon;timestamp;pressure;altitude;pressure_sealevel;temperature;humidity
63204;BME280;49297;43.210;27.914;2023-05-15T00:01:23;101510.69;;;15.42;70.73
63204;BME280;49297;43.210;27.914;2023-05-15T00:03:50;101511.81;;;15.40;70.49
63204;BME280;49297;43.210;27.914;2023-05-15T00:06:22;101521.66;;;15.39;70.73
63204;BME280;49297;43.210;27.914;2023-05-15T00:08:51;101524.03;;;15.42;70.84
63204;BME280;49297;43.210;27.914;2023-05-15T00:11:17;101528.84;;;15.39;70.84
63204;BME280;49297;43.210;27.914;2023-05-15T00:13:43;101525.00;;;15.41;70.89
63204;BME280;49297;43.210;27.914;2023-05-15T00:16:15;101518.16;;;15.39;71.06
63204;BME280;49297;43.210;27.914;2023-05-15T00:18:41;101509.31;;;15.38;71.77
63204;BME280;49297;43.210;27.914;2023-05-15T00:21:08;101514.47;;;15.40;71.78
63204;BME280;49297;43.210;27.914;2023-05-15T00:23:40;101509.00;;;15.41;71.71
63204;BME280;49297;43.210;27.914;2023-05-15T00:26:11;101508.03;;;15.42;71.71
63204;BME280;49297;43.210;27.914;2023-05-15T00:28:40;101513.22;;;15.44;71.63
63204;BME280;49297;43.210;27.914;2023-05-15T00:31:06;101525.88;;;15.42;71.67
63204;BME280;49297;43.210;27.914;2023-05-15T00:33:33;101521.66;;;15.39;71.57
63204;BME280;49297;43.210;27.914;2023-05-15T00:36:00;101514.47;;;15.40;72.24
63204;BME280;49297;43.210;27.914;2023-05-15T00:38:27;101506.34;;;15.41;72.38
63204;BME280;49297;43.210;27.914;2023-05-15T00:40:53;101500.31;;;15.39;72.09
63204;BME280;49297;43.210;27.914;2023-05-15T00:43:20;101509.16;;;15.40;72.13
63204;BME280;49297;43.210;27.914;2023-05-15T00:45:48;101507.34;;;15.40;72.33
63204;BME280;49297;43.210;27.914;2023-05-15T00:48:15;101509.88;;;15.42;72.17
63204;BME280;49297;43.210;27.914;2023-05-15T00:50:41;101506.34;;;15.41;72.17
63204;BME280;49297;43.210;27.914;2023-05-15T00:53:10;101502.69;;;15.42;71.98
63204;BME280;49297;43.210;27.914;2023-05-15T00:55:37;101502.53;;;15.44;72.15
63204;BME280;49297;43.210;27.914;2023-05-15T00:58:03;101516.72;;;15.45;71.43
63204;BME280;49297;43.210;27.914;2023-05-15T01:00:30;101510.41;;;15.46;72.02
63204;BME280;49297;43.210;27.914;2023-05-15T01:02:58;101508.56;;;15.46;71.60
63204;BME280;49297;43.210;27.914;2023-05-15T01:05:24;101505.91;;;15.46;71.45
63204;BME280;49297;43.210;27.914;2023-05-15T01:08:01;101502.41;;;15.46;71.95
63204;BME280;49297;43.210;27.914;2023-05-15T01:10:32;101496.81;;;15.39;72.02
63204;BME280;49297;43.210;27.914;2023-05-15T01:13:01;101496.81;;;15.39;71.51
63204;BME280;49297;43.210;27.914;2023-05-15T01:15:29;101488.81;;;15.39;71.76
63204;BME280;49297;43.210;27.914;2023-05-15T01:17:55;101484.16;;;15.41;71.85
63204;BME280;49297;43.210;27.914;2023-05-15T01:20:21;101476.97;;;15.41;71.71
63204;BME280;49297;43.210;27.914;2023-05-15T01:23:21;101476.97;;;15.41;71.65
63204;BME280;49297;43.210;27.914;2023-05-15T01:28:45;101483.19;;;15.42;71.77
63204;BME280;49297;43.210;27.914;2023-05-15T01:31:18;101485.84;;;15.42;71.63
63204;BME280;49297;43.210;27.914;2023-05-15T01:33:50;101483.00;;;15.43;71.89
63204;BME280;49297;43.210;27.914;2023-05-15T01:36:40;101471.34;;;15.45;71.41
63204;BME280;49297;43.210;27.914;2023-05-15T01:39:09;101464.31;;;15.43;71.42
63204;BME280;49297;43.210;27.914;2023-05-15T01:44:55;101450.84;;;15.45;71.75
63204;BME280;49297;43.210;27.914;2023-05-15T01:47:29;101442.97;;;15.43;71.45
63204;BME280;49297;43.210;27.914;2023-05-15T01:49:59;101433.31;;;15.42;71.48
63204;BME280;49297;43.210;27.914;2023-05-15T01:52:29;101421.97;;;15.40;71.93
63204;BME280;49297;43.210;27.914;2023-05-15T01:55:02;101416.09;;;15.37;72.02
63204;BME280;49297;43.210;27.914;2023-05-15T01:57:30;101433.75;;;15.38;71.61
63204;BME280;49297;43.210;27.914;2023-05-15T01:59:57;101422.69;;;15.33;72.01
63204;BME280;49297;43.210;27.914;2023-05-15T02:02:23;101420.22;;;15.31;72.05
63204;BME280;49297;43.210;27.914;2023-05-15T02:04:51;101420.34;;;15.30;71.63
63204;BME280;49297;43.210;27.914;2023-05-15T02:07:17;101417.00;;;15.28;71.88
63204;BME280;49297;43.210;27.914;2023-05-15T02:09:43;101414.16;;;15.29;72.11
63204;BME280;49297;43.210;27.914;2023-05-15T02:12:10;101415.56;;;15.33;72.14
63204;BME280;49297;43.210;27.914;2023-05-15T02:14:36;101415.56;;;15.33;71.83
63204;BME280;49297;43.210;27.914;2023-05-15T02:17:03;101416.25;;;15.35;71.53
63204;BME280;49297;43.210;27.914;2023-05-15T02:19:29;101414.56;;;15.34;71.98
63204;BME280;49297;43.210;27.914;2023-05-15T02:21:55;101408.09;;;15.37;71.88
63204;BME280;49297;43.210;27.914;2023-05-15T02:24:20;101414.25;;;15.37;71.60
63204;BME280;49297;43.210;27.914;2023-05-15T02:26:58;101416.09;;;15.37;71.35
63204;BME280;49297;43.210;27.914;2023-05-15T02:37:30;101414.25;;;15.37;70.96
63204;BME280;49297;43.210;27.914;2023-05-15T02:39:57;101409.06;;;15.36;70.78
63204;BME280;49297;43.210;27.914;2023-05-15T02:42:27;101400.53;;;15.32;71.19
63204;BME280;49297;43.210;27.914;2023-05-15T02:44:54;101398.00;;;15.31;71.09
63204;BME280;49297;43.210;27.914;2023-05-15T02:47:22;101390.88;;;15.31;71.10
63204;BME280;49297;43.210;27.914;2023-05-15T02:49:48;101393.22;;;15.34;71.03
63204;BME280;49297;43.210;27.914;2023-05-15T02:52:14;101394.22;;;15.33;70.96
63204;BME280;49297;43.210;27.914;2023-05-15T02:54:40;101394.22;;;15.33;70.75
63204;BME280;49297;43.210;27.914;2023-05-15T02:57:06;101401.22;;;15.34;70.54
63204;BME280;49297;43.210;27.914;2023-05-15T02:59:35;101395.03;;;15.34;71.02
63204;BME280;49297;43.210;27.914;2023-05-15T03:02:01;101399.84;;;15.30;70.56
63204;BME280;49297;43.210;27.914;2023-05-15T03:04:28;101398.88;;;15.31;71.20
63204;BME280;49297;43.210;27.914;2023-05-15T03:06:54;101401.53;;;15.31;71.30
63204;BME280;49297;43.210;27.914;2023-05-15T03:09:19;101396.19;;;15.31;71.08
63204;BME280;49297;43.210;27.914;2023-05-15T03:11:45;101388.34;;;15.30;71.47
63204;BME280;49297;43.210;27.914;2023-05-15T03:14:11;101394.94;;;15.26;71.39
63204;BME280;49297;43.210;27.914;2023-05-15T03:16:37;101397.47;;;15.27;71.78
63204;BME280;49297;43.210;27.914;2023-05-15T03:19:03;101398.00;;;15.31;71.84
63204;BME280;49297;43.210;27.914;2023-05-15T03:21:29;101389.72;;;15.34;71.67
63204;BME280;49297;43.210;27.914;2023-05-15T03:23:55;101386.22;;;15.33;71.22
63204;BME280;49297;43.210;27.914;2023-05-15T03:26:21;101387.03;;;15.34;71.54
63204;BME280;49297;43.210;27.914;2023-05-15T03:28:47;101383.41;;;15.35;71.60
63204;BME280;49297;43.210;27.914;2023-05-15T03:31:13;101387.03;;;15.34;71.55
63204;BME280;49297;43.210;27.914;2023-05-15T03:33:39;101379.34;;;15.31;71.49
63204;BME280;49297;43.210;27.914;2023-05-15T03:36:06;101385.19;;;15.34;71.43
63204;BME280;49297;43.210;27.914;2023-05-15T03:38:32;101380.56;;;15.36;71.79
63204;BME280;49297;43.210;27.914;2023-05-15T03:40:58;101384.06;;;15.37;71.83
63204;BME280;49297;43.210;27.914;2023-05-15T03:43:23;101384.75;;;15.39;71.78
63204;BME280;49297;43.210;27.914;2023-05-15T03:45:49;101391.06;;;15.38;71.97
63204;BME280;49297;43.210;27.914;2023-05-15T03:48:15;101388.41;;;15.38;71.88
63204;BME280;49297;43.210;27.914;2023-05-15T03:50:43;101381.09;;;15.40;71.92
63204;BME280;49297;43.210;27.914;2023-05-15T03:53:09;101384.47;;;15.42;71.69
63204;BME280;49297;43.210;27.914;2023-05-15T03:55:34;101396.09;;;15.41;71.83
63204;BME280;49297;43.210;27.914;2023-05-15T03:58:00;101395.13;;;15.42;71.97
63204;BME280;49297;43.210;27.914;2023-05-15T04:00:26;101401.16;;;15.44;71.95
63204;BME280;49297;43.210;27.914;2023-05-15T04:02:52;101400.69;;;15.49;71.77
63204;BME280;49297;43.210;27.914;2023-05-15T04:05:18;101400.84;;;15.47;71.78
63204;BME280;49297;43.210;27.914;2023-05-15T04:07:46;101408.38;;;15.52;71.98
63204;BME280;49297;43.210;27.914;2023-05-15T04:10:12;101409.06;;;15.54;72.30
63204;BME280;49297;43.210;27.914;2023-05-15T04:12:37;101410.59;;;15.56;71.66
63204;BME280;49297;43.210;27.914;2023-05-15T04:17:39;101409.44;;;15.59;71.90
63204;BME280;49297;43.210;27.914;2023-05-15T04:20:06;101405.66;;;15.61;71.89
63204;BME280;49297;43.210;27.914;2023-05-15T04:22:36;101399.31;;;15.63;71.66
63204;BME280;49297;43.210;27.914;2023-05-15T04:25:02;101394.63;;;15.65;71.82
63204;BME280;49297;43.210;27.914;2023-05-15T04:27:29;101399.00;;;15.66;71.54
63204;BME280;49297;43.210;27.914;2023-05-15T04:29:55;101415.53;;;15.69;72.02
63204;BME280;49297;43.210;27.914;2023-05-15T04:32:20;101414.38;;;15.72;71.78
63204;BME280;49297;43.210;27.914;2023-05-15T04:34:46;101412.56;;;15.72;71.26
63204;BME280;49297;43.210;27.914;2023-05-15T04:37:12;101421.97;;;15.76;71.62
63204;BME280;49297;43.210;27.914;2023-05-15T04:39:37;101433.72;;;15.84;71.15
63204;BME280;49297;43.210;27.914;2023-05-15T04:42:03;101433.72;;;15.84;70.97
63204;BME280;49297;43.210;27.914;2023-05-15T04:44:29;101438.75;;;15.87;71.08
63204;BME280;49297;43.210;27.914;2023-05-15T04:46:55;101438.41;;;15.90;70.90
63204;BME280;49297;43.210;27.914;2023-05-15T04:49:21;101440.63;;;15.94;70.69
63204;BME280;49297;43.210;27.914;2023-05-15T04:51:46;101439.47;;;15.97;70.46
63204;BME280;49297;43.210;27.914;2023-05-15T04:54:12;101446.50;;;15.98;70.49
63204;BME280;49297;43.210;27.914;2023-05-15T04:56:38;101439.47;;;15.97;70.44
63204;BME280;49297;43.210;27.914;2023-05-15T04:59:04;101440.47;;;15.96;70.67
63204;BME280;49297;43.210;27.914;2023-05-15T05:01:30;101445.97;;;15.94;70.83
63204;BME280;49297;43.210;27.914;2023-05-15T05:03:56;101444.28;;;15.93;70.37
63204;BME280;49297;43.210;27.914;2023-05-15T05:06:22;101442.84;;;15.99;70.48
63204;BME280;49297;43.210;27.914;2023-05-15T05:08:48;101435.19;;;16.04;70.31
63204;BME280;49297;43.210;27.914;2023-05-15T05:11:13;101441.75;;;16.10;70.14
63204;BME280;49297;43.210;27.914;2023-05-15T05:13:40;101429.53;;;16.07;69.93
63204;BME280;49297;43.210;27.914;2023-05-15T05:16:07;101428.34;;;16.02;70.23
63204;BME280;49297;43.210;27.914;2023-05-15T05:18:32;101414.81;;;16.03;70.52
63204;BME280;49297;43.210;27.914;2023-05-15T05:21:02;101408.16;;;16.07;70.44
63204;BME280;49297;43.210;27.914;2023-05-15T05:23:29;101405.03;;;16.12;70.23
63204;BME280;49297;43.210;27.914;2023-05-15T05:25:55;101407.22;;;16.16;69.82
63204;BME280;49297;43.210;27.914;2023-05-15T05:28:21;101415.94;;;16.18;69.83
63204;BME280;49297;43.210;27.914;2023-05-15T05:30:47;101424.28;;;16.24;69.30
63204;BME280;49297;43.210;27.914;2023-05-15T05:33:13;101419.84;;;16.32;69.26
63204;BME280;49297;43.210;27.914;2023-05-15T05:35:39;101419.06;;;16.40;68.76
63204;BME280;49297;43.210;27.914;2023-05-15T05:38:05;101414.75;;;16.47;68.50
63204;BME280;49297;43.210;27.914;2023-05-15T05:40:31;101407.94;;;16.53;68.10
63204;BME280;49297;43.210;27.914;2023-05-15T05:43:01;101407.56;;;16.48;67.61
63204;BME280;49297;43.210;27.914;2023-05-15T05:45:27;101413.72;;;16.40;68.02
63204;BME280;49297;43.210;27.914;2023-05-15T05:47:56;101418.38;;;16.38;67.60
63204;BME280;49297;43.210;27.914;2023-05-15T05:50:22;101409.53;;;16.37;67.82
63204;BME280;49297;43.210;27.914;2023-05-15T05:52:48;101411.41;;;16.45;67.14
63204;BME280;49297;43.210;27.914;2023-05-15T05:55:15;101415.97;;;16.53;67.08
63204;BME280;49297;43.210;27.914;2023-05-15T05:57:40;101411.13;;;16.56;66.61
63204;BME280;49297;43.210;27.914;2023-05-15T06:00:08;101415.16;;;16.61;65.97
63204;BME280;49297;43.210;27.914;2023-05-15T06:02:45;101429.69;;;16.66;65.74
63204;BME280;49297;43.210;27.914;2023-05-15T06:05:15;101431.53;;;16.66;65.68
63204;BME280;49297;43.210;27.914;2023-05-15T06:07:42;101427.19;;;16.65;65.73
63204;BME280;49297;43.210;27.914;2023-05-15T06:10:08;101430.91;;;16.72;65.67
63204;BME280;49297;43.210;27.914;2023-05-15T06:12:35;101430.34;;;16.86;65.24
63204;BME280;49297;43.210;27.914;2023-05-15T06:15:01;101427.19;;;16.99;64.86
63204;BME280;49297;43.210;27.914;2023-05-15T06:17:29;101439.41;;;17.02;64.59
63204;BME280;49297;43.210;27.914;2023-05-15T06:19:55;101437.84;;;16.91;63.87
63204;BME280;49297;43.210;27.914;2023-05-15T06:22:21;101428.25;;;16.80;64.57
63204;BME280;49297;43.210;27.914;2023-05-15T06:24:47;101420.63;;;16.85;64.22
63204;BME280;49297;43.210;27.914;2023-05-15T06:27:15;101425.16;;;16.93;63.52
63204;BME280;49297;43.210;27.914;2023-05-15T06:29:41;101418.97;;;16.92;63.40
63204;BME280;49297;43.210;27.914;2023-05-15T06:32:08;101430.00;;;16.89;63.25
63204;BME280;49297;43.210;27.914;2023-05-15T06:34:34;101431.00;;;16.88;63.40
63204;BME280;49297;43.210;27.914;2023-05-15T06:37:00;101422.84;;;16.90;63.11
63204;BME280;49297;43.210;27.914;2023-05-15T06:39:26;101417.13;;;16.93;62.60
63204;BME280;49297;43.210;27.914;2023-05-15T06:41:52;101402.28;;;16.99;63.01
63204;BME280;49297;43.210;27.914;2023-05-15T06:44:22;101400.97;;;17.11;62.42
63204;BME280;49297;43.210;27.914;2023-05-15T06:46:49;101395.47;;;17.12;62.47
63204;BME280;49297;43.210;27.914;2023-05-15T06:49:16;101414.38;;;17.19;62.30
63204;BME280;49297;43.210;27.914;2023-05-15T06:51:47;101419.56;;;17.21;62.26
63204;BME280;49297;43.210;27.914;2023-05-15T06:54:14;101417.06;;;17.27;61.84
63204;BME280;49297;43.210;27.914;2023-05-15T06:56:41;101417.41;;;17.41;61.31
63204;BME280;49297;43.210;27.914;2023-05-15T06:59:09;101409.91;;;17.53;61.04
63204;BME280;49297;43.210;27.914;2023-05-15T07:01:35;101410.41;;;17.64;60.81
63204;BME280;49297;43.210;27.914;2023-05-15T07:04:04;101410.75;;;17.78;59.97
63204;BME280;49297;43.210;27.914;2023-05-15T07:06:29;101400.53;;;17.89;58.54
63204;BME280;49297;43.210;27.914;2023-05-15T07:08:59;101391.34;;;17.92;58.06
63204;BME280;49297;43.210;27.914;2023-05-15T07:11:25;101381.28;;;17.94;58.32
63204;BME280;49297;43.210;27.914;2023-05-15T07:13:52;101375.75;;;17.96;59.41
63204;BME280;49297;43.210;27.914;2023-05-15T07:16:18;101394.34;;;17.89;60.63
63204;BME280;49297;43.210;27.914;2023-05-15T07:18:44;101390.31;;;17.93;60.81
63204;BME280;49297;43.210;27.914;2023-05-15T07:21:11;101380.47;;;17.94;60.45
63204;BME280;49297;43.210;27.914;2023-05-15T07:23:37;101384.13;;;17.84;60.63
63204;BME280;49297;43.210;27.914;2023-05-15T07:26:09;101393.00;;;17.77;60.80
63204;BME280;49297;43.210;27.914;2023-05-15T07:28:37;101396.34;;;17.62;61.59
63204;BME280;49297;43.210;27.914;2023-05-15T07:31:02;101393.00;;;17.60;61.88
63204;BME280;49297;43.210;27.914;2023-05-15T07:33:35;101397.50;;;17.51;62.13
63204;BME280;49297;43.210;27.914;2023-05-15T07:36:01;101405.88;;;17.57;62.00
63204;BME280;49297;43.210;27.914;2023-05-15T07:38:27;101418.59;;;17.71;62.19
63204;BME280;49297;43.210;27.914;2023-05-15T07:40:53;101418.13;;;17.76;61.33
63204;BME280;49297;43.210;27.914;2023-05-15T07:43:21;101409.56;;;17.72;59.48
63204;BME280;49297;43.210;27.914;2023-05-15T07:45:47;101393.50;;;17.80;59.30
63204;BME280;49297;43.210;27.914;2023-05-15T07:48:17;101395.34;;;17.96;59.95
63204;BME280;49297;43.210;27.914;2023-05-15T07:50:45;101390.31;;;18.10;60.12
63204;BME280;49297;43.210;27.914;2023-05-15T07:53:15;101387.75;;;18.16;60.00
63204;BME280;49297;43.210;27.914;2023-05-15T07:55:45;101387.59;;;18.26;60.26
63204;BME280;49297;43.210;27.914;2023-05-15T07:58:11;101376.00;;;18.34;60.04
63204;BME280;49297;43.210;27.914;2023-05-15T08:00:37;101369.47;;;18.36;60.07
63204;BME280;49297;43.210;27.914;2023-05-15T08:03:02;101367.78;;;18.43;59.34
63204;BME280;49297;43.210;27.914;2023-05-15T08:05:28;101371.78;;;18.39;58.91
63204;BME280;49297;43.210;27.914;2023-05-15T08:07:55;101384.41;;;18.31;58.51
63204;BME280;49297;43.210;27.914;2023-05-15T08:10:22;101386.41;;;18.29;58.70
63204;BME280;49297;43.210;27.914;2023-05-15T08:12:48;101389.94;;;18.29;58.83
63204;BME280;49297;43.210;27.914;2023-05-15T08:15:16;101390.91;;;18.36;57.87
63204;BME280;49297;43.210;27.914;2023-05-15T08:17:42;101398.25;;;18.42;57.65
63204;BME280;49297;43.210;27.914;2023-05-15T08:20:08;101407.00;;;18.36;57.64
63204;BME280;49297;43.210;27.914;2023-05-15T08:22:34;101388.25;;;18.28;57.70
63204;BME280;49297;43.210;27.914;2023-05-15T08:25:01;101404.50;;;18.26;57.37
63204;BME280;49297;43.210;27.914;2023-05-15T08:27:31;101398.97;;;18.28;56.94
63204;BME280;49297;43.210;27.914;2023-05-15T08:29:57;101397.28;;;18.35;57.25
63204;BME280;49297;43.210;27.914;2023-05-15T08:32:23;101403.66;;;18.34;56.00
63204;BME280;49297;43.210;27.914;2023-05-15T08:34:50;101395.63;;;18.26;55.27
63204;BME280;49297;43.210;27.914;2023-05-15T08:37:15;101401.38;;;18.15;55.92
63204;BME280;49297;43.210;27.914;2023-05-15T08:39:41;101394.16;;;18.07;55.78
63204;BME280;49297;43.210;27.914;2023-05-15T08:42:10;101385.47;;;18.05;56.40
63204;BME280;49297;43.210;27.914;2023-05-15T08:44:40;101380.63;;;17.92;56.62
63204;BME280;49297;43.210;27.914;2023-05-15T08:47:06;101374.09;;;17.95;56.75
63204;BME280;49297;43.210;27.914;2023-05-15T08:52:27;101370.75;;;18.01;55.22
63204;BME280;49297;43.210;27.914;2023-05-15T08:54:54;101364.69;;;18.07;54.48
63204;BME280;49297;43.210;27.914;2023-05-15T08:57:20;101361.84;;;18.08;54.75
63204;BME280;49297;43.210;27.914;2023-05-15T08:59:48;101368.34;;;18.14;55.08
63204;BME280;49297;43.210;27.914;2023-05-15T09:02:16;101363.47;;;18.18;55.35
63204;BME280;49297;43.210;27.914;2023-05-15T09:04:43;101350.25;;;18.24;56.02
63204;BME280;49297;43.210;27.914;2023-05-15T09:07:10;101359.06;;;18.41;55.56
63204;BME280;49297;43.210;27.914;2023-05-15T09:09:38;101355.84;;;18.46;54.54
63204;BME280;49297;43.210;27.914;2023-05-15T09:12:06;101360.16;;;18.55;55.23
63204;BME280;49297;43.210;27.914;2023-05-15T09:14:35;101358.59;;;18.69;54.92
63204;BME280;49297;43.210;27.914;2023-05-15T09:17:04;101365.16;;;18.67;54.90
63204;BME280;49297;43.210;27.914;2023-05-15T09:19:41;101384.78;;;18.59;54.33
63204;BME280;49297;43.210;27.914;2023-05-15T09:22:18;101382.97;;;18.51;54.88
63204;BME280;49297;43.210;27.914;2023-05-15T09:24:50;101376.78;;;18.51;55.59
63204;BME280;49297;43.210;27.914;2023-05-15T09:27:18;101373.56;;;18.55;56.22
63204;BME280;49297;43.210;27.914;2023-05-15T09:29:45;101365.19;;;18.58;55.91
63204;BME280;49297;43.210;27.914;2023-05-15T09:32:13;101368.91;;;18.57;55.89
63204;BME280;49297;43.210;27.914;2023-05-15T09:34:42;101364.31;;;18.66;55.01
63204;BME280;49297;43.210;27.914;2023-05-15T09:37:12;101361.75;;;18.73;53.93
63204;BME280;49297;43.210;27.914;2023-05-15T09:39:52;101358.84;;;18.91;52.22
63204;BME280;49297;43.210;27.914;2023-05-15T09:42:18;101349.63;;;18.93;52.69
63204;BME280;49297;43.210;27.914;2023-05-15T09:44:45;101358.50;;;18.94;52.52
63204;BME280;49297;43.210;27.914;2023-05-15T09:47:14;101349.81;;;18.83;52.86
63204;BME280;49297;43.210;27.914;2023-05-15T09:49:45;101355.50;;;18.80;53.02
63204;BME280;49297;43.210;27.914;2023-05-15T09:52:11;101348.66;;;18.78;52.56
63204;BME280;49297;43.210;27.914;2023-05-15T09:54:39;101348.66;;;18.86;52.16
63204;BME280;49297;43.210;27.914;2023-05-15T09:57:12;101338.03;;;18.93;52.28
63204;BME280;49297;43.210;27.914;2023-05-15T09:59:46;101338.00;;;19.01;51.40
63204;BME280;49297;43.210;27.914;2023-05-15T10:02:32;101337.38;;;19.14;52.22
63204;BME280;49297;43.210;27.914;2023-05-15T10:05:06;101324.28;;;19.19;51.84
63204;BME280;49297;43.210;27.914;2023-05-15T10:07:34;101320.50;;;19.28;51.14
63204;BME280;49297;43.210;27.914;2023-05-15T10:10:02;101314.72;;;19.39;49.77
63204;BME280;49297;43.210;27.914;2023-05-15T10:12:30;101317.25;;;19.56;50.18
63204;BME280;49297;43.210;27.914;2023-05-15T10:14:57;101312.47;;;19.66;50.32
63204;BME280;49297;43.210;27.914;2023-05-15T10:17:27;101327.00;;;19.72;49.97
63204;BME280;49297;43.210;27.914;2023-05-15T10:19:57;101317.06;;;19.81;49.86
63204;BME280;49297;43.210;27.914;2023-05-15T10:22:28;101316.28;;;19.87;50.02
63204;BME280;49297;43.210;27.914;2023-05-15T10:27:49;101313.81;;;20.00;50.16
63204;BME280;49297;43.210;27.914;2023-05-15T10:30:16;101319.53;;;20.12;50.03
63204;BME280;49297;43.210;27.914;2023-05-15T10:32:45;101312.06;;;20.07;49.73
63204;BME280;49297;43.210;27.914;2023-05-15T10:35:13;101322.41;;;20.10;49.99
63204;BME280;49297;43.210;27.914;2023-05-15T10:37:40;101316.47;;;20.30;49.86
63204;BME280;49297;43.210;27.914;2023-05-15T10:40:08;101329.28;;;20.43;49.42
63204;BME280;49297;43.210;27.914;2023-05-15T10:42:36;101325.53;;;20.73;49.06
63204;BME280;49297;43.210;27.914;2023-05-15T10:45:04;101324.56;;;21.03;48.48
63204;BME280;49297;43.210;27.914;2023-05-15T10:47:32;101313.84;;;21.31;48.00
63204;BME280;49297;43.210;27.914;2023-05-15T10:50:00;101330.94;;;21.66;47.61
63204;BME280;49297;43.210;27.914;2023-05-15T10:52:26;101326.50;;;21.80;46.70
63204;BME280;49297;43.210;27.914;2023-05-15T10:54:52;101319.66;;;21.84;46.51
63204;BME280;49297;43.210;27.914;2023-05-15T10:57:28;101328.81;;;22.25;45.49
63204;BME280;49297;43.210;27.914;2023-05-15T10:59:55;101330.06;;;22.64;44.25
63204;BME280;49297;43.210;27.914;2023-05-15T11:02:26;101324.09;;;22.82;43.53
63204;BME280;49297;43.210;27.914;2023-05-15T11:04:55;101318.50;;;23.04;43.53
63204;BME280;49297;43.210;27.914;2023-05-15T11:07:22;101323.53;;;23.13;43.70
63204;BME280;49297;43.210;27.914;2023-05-15T11:09:49;101317.03;;;23.01;43.80
63204;BME280;49297;43.210;27.914;2023-05-15T11:12:17;101315.94;;;22.69;44.84
63204;BME280;49297;43.210;27.914;2023-05-15T11:17:35;101307.22;;;22.18;45.69
63204;BME280;49297;43.210;27.914;2023-05-15T11:20:01;101311.22;;;21.94;46.41
63204;BME280;49297;43.210;27.914;2023-05-15T11:25:09;101306.75;;;21.73;47.15
63204;BME280;49297;43.210;27.914;2023-05-15T11:27:45;101309.34;;;21.60;47.13
63204;BME280;49297;43.210;27.914;2023-05-15T11:30:18;101302.38;;;21.22;47.88
63204;BME280;49297;43.210;27.914;2023-05-15T11:32:54;101297.84;;;21.01;48.29
63204;BME280;49297;43.210;27.914;2023-05-15T11:35:21;101308.78;;;21.00;48.48
63204;BME280;49297;43.210;27.914;2023-05-15T11:38:21;101303.56;;;20.91;48.77
63204;BME280;49297;43.210;27.914;2023-05-15T11:40:58;101301.06;;;21.11;48.95
63204;BME280;49297;43.210;27.914;2023-05-15T11:43:32;101298.50;;;21.46;47.61
63204;BME280;49297;43.210;27.914;2023-05-15T11:48:33;101298.63;;;22.43;45.83
63204;BME280;49297;43.210;27.914;2023-05-15T11:51:04;101292.88;;;22.59;45.25
63204;BME280;49297;43.210;27.914;2023-05-15T11:53:31;101290.66;;;22.76;45.18
63204;BME280;49297;43.210;27.914;2023-05-15T11:55:58;101290.31;;;23.13;44.58
63204;BME280;49297;43.210;27.914;2023-05-15T11:58:24;101295.47;;;23.54;43.50
63204;BME280;49297;43.210;27.914;2023-05-15T12:00:51;101283.81;;;23.94;42.91
63204;BME280;49297;43.210;27.914;2023-05-15T12:03:26;101289.97;;;24.14;42.25
63204;BME280;49297;43.210;27.914;2023-05-15T12:05:56;101294.34;;;24.09;42.45
63204;BME280;49297;43.210;27.914;2023-05-15T12:08:23;101272.81;;;23.82;42.91
63204;BME280;49297;43.210;27.914;2023-05-15T12:10:49;101279.91;;;23.36;43.46
63204;BME280;49297;43.210;27.914;2023-05-15T12:13:17;101278.25;;;23.15;44.62
63204;BME280;49297;43.210;27.914;2023-05-15T12:15:45;101262.25;;;23.21;44.22
63204;BME280;49297;43.210;27.914;2023-05-15T12:18:12;101258.53;;;23.22;44.54
63204;BME280;49297;43.210;27.914;2023-05-15T12:20:39;101264.47;;;22.90;44.55
63204;BME280;49297;43.210;27.914;2023-05-15T12:23:14;101264.69;;;22.62;45.42
63204;BME280;49297;43.210;27.914;2023-05-15T12:25:46;101262.31;;;22.46;45.87
63204;BME280;49297;43.210;27.914;2023-05-15T12:28:15;101266.22;;;22.30;46.59
63204;BME280;49297;43.210;27.914;2023-05-15T12:30:42;101264.81;;;21.99;47.13
63204;BME280;49297;43.210;27.914;2023-05-15T12:33:09;101269.53;;;21.55;47.63
63204;BME280;49297;43.210;27.914;2023-05-15T12:35:39;101275.56;;;21.07;49.16
63204;BME280;49297;43.210;27.914;2023-05-15T12:38:06;101284.78;;;20.77;50.12
63204;BME280;49297;43.210;27.914;2023-05-15T12:40:34;101276.56;;;20.63;50.44
63204;BME280;49297;43.210;27.914;2023-05-15T12:43:05;101291.75;;;20.56;50.57
63204;BME280;49297;43.210;27.914;2023-05-15T12:45:32;101281.69;;;20.28;51.48
63204;BME280;49297;43.210;27.914;2023-05-15T12:48:01;101282.19;;;20.17;52.22
63204;BME280;49297;43.210;27.914;2023-05-15T12:50:31;101278.38;;;20.26;52.24
63204;BME280;49297;43.210;27.914;2023-05-15T12:53:01;101284.69;;;20.19;51.67
63204;BME280;49297;43.210;27.914;2023-05-15T12:58:00;101268.13;;;20.00;52.38
63204;BME280;49297;43.210;27.914;2023-05-15T13:00:33;101270.06;;;20.06;52.47
63204;BME280;49297;43.210;27.914;2023-05-15T13:03:00;101264.59;;;20.14;52.65
63204;BME280;49297;43.210;27.914;2023-05-15T13:05:33;101263.00;;;20.05;52.44
63204;BME280;49297;43.210;27.914;2023-05-15T13:08:01;101257.78;;;19.82;52.64
63204;BME280;49297;43.210;27.914;2023-05-15T13:10:31;101260.50;;;19.59;53.45
63204;BME280;49297;43.210;27.914;2023-05-15T13:12:59;101259.56;;;19.52;53.67
63204;BME280;49297;43.210;27.914;2023-05-15T13:15:30;101249.72;;;19.44;53.84
63204;BME280;49297;43.210;27.914;2023-05-15T13:20:37;101267.28;;;19.32;54.05